sensor_id;sensor_type;location;lat;lon;timestamp;P1;durP1;ratioP1;P2;durP2;ratioP2
21198;SDS011;10757;51.038;3.712;2022-09-17T00:02:11;13.35;;;1.67;;
21198;SDS011;10757;51.038;3.712;2022-09-17T00:04:37;16.17;;;2.50;;
21198;SDS011;10757;51.038;3.712;2022-09-17T00:07:03;19.88;;;2.78;;
21198;SDS011;10757;51.038;3.712;2022-09-17T00:09:29;11.40;;;1.90;;
21198;SDS011;10757;51.038;3.712;2022-09-17T00:11:54;9.65;;;1.50;;
21198;SDS011;10757;51.038;3.712;2022-09-17T00:14:20;17.35;;;2.00;;
21198;SDS011;10757;51.038;3.712;2022-09-17T00:16:46;13.45;;;2.20;;
21198;SDS011;10757;51.038;3.712;2022-09-17T00:19:17;12.13;;;2.13;;
21198;SDS011;10757;51.038;3.712;2022-09-17T00:21:44;14.23;;;2.08;;
21198;SDS011;10757;51.038;3.712;2022-09-17T00:24:11;22.27;;;2.40;;
21198;SDS011;10757;51.038;3.712;2022-09-17T00:26:38;13.82;;;2.08;;
21198;SDS011;10757;51.038;3.712;2022-09-17T00:29:04;18.27;;;2.38;;
21198;SDS011;10757;51.038;3.712;2022-09-17T00:31:30;19.85;;;2.63;;
21198;SDS011;10757;51.038;3.712;2022-09-17T00:33:57;11.25;;;1.80;;
21198;SDS011;10757;51.038;3.712;2022-09-17T00:36:24;14.35;;;2.00;;
21198;SDS011;10757;51.038;3.712;2022-09-17T00:38:50;13.25;;;2.13;;
21198;SDS011;10757;51.038;3.712;2022-09-17T00:41:20;17.67;;;2.60;;
21198;SDS011;10757;51.038;3.712;2022-09-17T00:43:48;12.52;;;2.75;;
21198;SDS011;10757;51.038;3.712;2022-09-17T00:46:21;16.25;;;2.15;;
21198;SDS011;10757;51.038;3.712;2022-09-17T00:49:25;21.73;;;2.70;;
21198;SDS011;10757;51.038;3.712;2022-09-17T00:52:00;20.98;;;3.08;;
21198;SDS011;10757;51.038;3.712;2022-09-17T00:54:31;17.80;;;2.80;;
21198;SDS011;10757;51.038;3.712;2022-09-17T00:56:58;14.18;;;2.45;;
21198;SDS011;10757;51.038;3.712;2022-09-17T00:59:24;13.70;;;2.72;;
21198;SDS011;10757;51.038;3.712;2022-09-17T01:01:50;20.20;;;3.13;;
21198;SDS011;10757;51.038;3.712;2022-09-17T01:04:17;17.70;;;2.60;;
21198;SDS011;10757;51.038;3.712;2022-09-17T01:06:47;13.45;;;2.58;;
21198;SDS011;10757;51.038;3.712;2022-09-17T01:09:35;24.10;;;2.47;;
21198;SDS011;10757;51.038;3.712;2022-09-17T01:15:12;22.58;;;2.80;;
21198;SDS011;10757;51.038;3.712;2022-09-17T01:17:59;18.20;;;2.78;;
21198;SDS011;10757;51.038;3.712;2022-09-17T01:23:44;22.33;;;2.67;;
21198;SDS011;10757;51.038;3.712;2022-09-17T01:37:44;28.25;;;4.13;;
21198;SDS011;10757;51.038;3.712;2022-09-17T01:40:06;26.48;;;3.55;;
21198;SDS011;10757;51.038;3.712;2022-09-17T01:53:21;33.40;;;4.07;;
21198;SDS011;10757;51.038;3.712;2022-09-17T01:55:52;18.65;;;3.33;;
21198;SDS011;10757;51.038;3.712;2022-09-17T01:58:25;32.25;;;4.00;;
21198;SDS011;10757;51.038;3.712;2022-09-17T02:01:01;27.30;;;3.85;;
21198;SDS011;10757;51.038;3.712;2022-09-17T02:08:35;21.40;;;3.45;;
21198;SDS011;10757;51.038;3.712;2022-09-17T02:11:11;28.33;;;3.55;;
21198;SDS011;10757;51.038;3.712;2022-09-17T02:13:46;21.45;;;3.50;;
21198;SDS011;10757;51.038;3.712;2022-09-17T02:16:28;28.10;;;3.78;;
21198;SDS011;10757;51.038;3.712;2022-09-17T02:21:35;23.20;;;3.65;;
21198;SDS011;10757;51.038;3.712;2022-09-17T02:24:53;26.13;;;3.38;;
21198;SDS011;10757;51.038;3.712;2022-09-17T02:29:48;25.00;;;4.93;;
21198;SDS011;10757;51.038;3.712;2022-09-17T02:32:16;25.85;;;4.43;;
21198;SDS011;10757;51.038;3.712;2022-09-17T02:34:41;35.28;;;4.57;;
21198;SDS011;10757;51.038;3.712;2022-09-17T02:37:07;23.52;;;4.15;;
21198;SDS011;10757;51.038;3.712;2022-09-17T02:39:33;21.90;;;3.70;;
21198;SDS011;10757;51.038;3.712;2022-09-17T02:50:06;24.83;;;3.85;;
21198;SDS011;10757;51.038;3.712;2022-09-17T02:58:27;18.75;;;3.28;;
21198;SDS011;10757;51.038;3.712;2022-09-17T03:01:02;20.35;;;4.05;;
21198;SDS011;10757;51.038;3.712;2022-09-17T03:03:39;21.52;;;3.90;;
21198;SDS011;10757;51.038;3.712;2022-09-17T03:06:08;21.38;;;3.58;;
21198;SDS011;10757;51.038;3.712;2022-09-17T03:08:35;23.80;;;4.32;;
21198;SDS011;10757;51.038;3.712;2022-09-17T03:11:04;23.25;;;3.58;;
21198;SDS011;10757;51.038;3.712;2022-09-17T03:13:30;18.15;;;2.97;;
21198;SDS011;10757;51.038;3.712;2022-09-17T03:15:56;22.58;;;3.17;;
21198;SDS011;10757;51.038;3.712;2022-09-17T03:18:22;23.30;;;3.28;;
21198;SDS011;10757;51.038;3.712;2022-09-17T03:20:47;18.42;;;2.97;;
21198;SDS011;10757;51.038;3.712;2022-09-17T03:23:13;13.93;;;2.58;;
21198;SDS011;10757;51.038;3.712;2022-09-17T03:25:39;17.98;;;2.50;;
21198;SDS011;10757;51.038;3.712;2022-09-17T03:28:05;21.25;;;3.13;;
21198;SDS011;10757;51.038;3.712;2022-09-17T03:30:30;15.15;;;2.67;;
21198;SDS011;10757;51.038;3.712;2022-09-17T03:32:56;26.38;;;3.05;;
21198;SDS011;10757;51.038;3.712;2022-09-17T03:35:22;15.85;;;2.58;;
21198;SDS011;10757;51.038;3.712;2022-09-17T03:37:47;13.43;;;2.83;;
21198;SDS011;10757;51.038;3.712;2022-09-17T03:40:13;17.98;;;2.20;;
21198;SDS011;10757;51.038;3.712;2022-09-17T03:42:39;15.98;;;2.50;;
21198;SDS011;10757;51.038;3.712;2022-09-17T03:45:04;18.55;;;2.97;;
21198;SDS011;10757;51.038;3.712;2022-09-17T03:47:30;14.32;;;2.28;;
21198;SDS011;10757;51.038;3.712;2022-09-17T03:49:56;14.75;;;2.17;;
21198;SDS011;10757;51.038;3.712;2022-09-17T03:52:22;17.20;;;2.00;;
21198;SDS011;10757;51.038;3.712;2022-09-17T03:54:47;15.57;;;1.90;;
21198;SDS011;10757;51.038;3.712;2022-09-17T03:57:13;13.88;;;1.80;;
21198;SDS011;10757;51.038;3.712;2022-09-17T03:59:39;11.73;;;2.05;;
21198;SDS011;10757;51.038;3.712;2022-09-17T04:02:05;12.98;;;2.75;;
21198;SDS011;10757;51.038;3.712;2022-09-17T04:04:30;10.55;;;1.85;;
21198;SDS011;10757;51.038;3.712;2022-09-17T04:06:56;9.95;;;2.25;;
21198;SDS011;10757;51.038;3.712;2022-09-17T04:09:22;8.75;;;1.63;;
21198;SDS011;10757;51.038;3.712;2022-09-17T04:11:48;12.10;;;1.80;;
21198;SDS011;10757;51.038;3.712;2022-09-17T04:14:13;12.20;;;1.95;;
21198;SDS011;10757;51.038;3.712;2022-09-17T04:16:39;13.07;;;1.85;;
21198;SDS011;10757;51.038;3.712;2022-09-17T04:19:05;10.88;;;2.33;;
21198;SDS011;10757;51.038;3.712;2022-09-17T04:21:30;12.68;;;1.60;;
21198;SDS011;10757;51.038;3.712;2022-09-17T04:23:56;13.40;;;2.03;;
21198;SDS011;10757;51.038;3.712;2022-09-17T04:26:22;8.77;;;1.55;;
21198;SDS011;10757;51.038;3.712;2022-09-17T04:28:48;13.00;;;2.20;;
21198;SDS011;10757;51.038;3.712;2022-09-17T04:31:13;9.73;;;1.95;;
21198;SDS011;10757;51.038;3.712;2022-09-17T04:33:39;11.63;;;1.92;;
21198;SDS011;10757;51.038;3.712;2022-09-17T04:36:05;15.18;;;2.45;;
21198;SDS011;10757;51.038;3.712;2022-09-17T04:38:30;15.38;;;2.17;;
21198;SDS011;10757;51.038;3.712;2022-09-17T04:40:57;16.33;;;2.13;;
21198;SDS011;10757;51.038;3.712;2022-09-17T04:43:23;18.05;;;3.13;;
21198;SDS011;10757;51.038;3.712;2022-09-17T04:45:49;8.55;;;1.50;;
21198;SDS011;10757;51.038;3.712;2022-09-17T04:48:15;8.82;;;1.63;;
21198;SDS011;10757;51.038;3.712;2022-09-17T04:50:41;17.10;;;2.67;;
21198;SDS011;10757;51.038;3.712;2022-09-17T04:53:07;12.50;;;1.90;;
21198;SDS011;10757;51.038;3.712;2022-09-17T04:55:33;17.88;;;2.95;;
21198;SDS011;10757;51.038;3.712;2022-09-17T04:57:59;20.13;;;2.78;;
21198;SDS011;10757;51.038;3.712;2022-09-17T05:00:25;17.02;;;2.25;;
21198;SDS011;10757;51.038;3.712;2022-09-17T05:02:52;18.80;;;3.28;;
21198;SDS011;10757;51.038;3.712;2022-09-17T05:05:19;14.15;;;2.05;;
21198;SDS011;10757;51.038;3.712;2022-09-17T05:07:45;16.63;;;2.47;;
21198;SDS011;10757;51.038;3.712;2022-09-17T05:10:13;17.05;;;2.75;;
21198;SDS011;10757;51.038;3.712;2022-09-17T05:12:40;14.55;;;2.40;;
21198;SDS011;10757;51.038;3.712;2022-09-17T05:15:11;16.13;;;2.95;;
21198;SDS011;10757;51.038;3.712;2022-09-17T05:17:36;14.23;;;2.60;;
21198;SDS011;10757;51.038;3.712;2022-09-17T05:20:02;12.23;;;2.00;;
21198;SDS011;10757;51.038;3.712;2022-09-17T05:22:28;16.67;;;2.60;;
21198;SDS011;10757;51.038;3.712;2022-09-17T05:24:53;15.18;;;2.53;;
21198;SDS011;10757;51.038;3.712;2022-09-17T05:27:19;11.55;;;1.95;;
21198;SDS011;10757;51.038;3.712;2022-09-17T05:29:45;20.65;;;3.53;;
21198;SDS011;10757;51.038;3.712;2022-09-17T05:32:10;12.57;;;2.60;;
21198;SDS011;10757;51.038;3.712;2022-09-17T05:34:36;15.45;;;2.50;;
21198;SDS011;10757;51.038;3.712;2022-09-17T05:37:02;15.13;;;2.10;;
21198;SDS011;10757;51.038;3.712;2022-09-17T05:39:27;16.08;;;1.92;;
21198;SDS011;10757;51.038;3.712;2022-09-17T05:41:53;15.05;;;1.75;;
21198;SDS011;10757;51.038;3.712;2022-09-17T05:44:19;20.40;;;2.67;;
21198;SDS011;10757;51.038;3.712;2022-09-17T05:46:46;10.90;;;1.98;;
21198;SDS011;10757;51.038;3.712;2022-09-17T05:49:12;10.57;;;1.77;;
21198;SDS011;10757;51.038;3.712;2022-09-17T05:51:39;15.13;;;2.10;;
21198;SDS011;10757;51.038;3.712;2022-09-17T05:54:05;10.05;;;1.45;;
21198;SDS011;10757;51.038;3.712;2022-09-17T05:56:32;12.05;;;1.70;;
21198;SDS011;10757;51.038;3.712;2022-09-17T05:58:57;9.93;;;1.83;;
21198;SDS011;10757;51.038;3.712;2022-09-17T06:01:23;16.73;;;1.58;;
21198;SDS011;10757;51.038;3.712;2022-09-17T06:03:51;8.55;;;1.50;;
21198;SDS011;10757;51.038;3.712;2022-09-17T06:06:22;7.50;;;1.75;;
21198;SDS011;10757;51.038;3.712;2022-09-17T06:08:53;10.30;;;1.55;;
21198;SDS011;10757;51.038;3.712;2022-09-17T06:11:24;8.98;;;1.30;;
21198;SDS011;10757;51.038;3.712;2022-09-17T06:14:00;10.60;;;1.88;;
21198;SDS011;10757;51.038;3.712;2022-09-17T06:16:49;9.23;;;1.50;;
21198;SDS011;10757;51.038;3.712;2022-09-17T06:19:22;10.38;;;1.73;;
21198;SDS011;10757;51.038;3.712;2022-09-17T06:24:26;8.82;;;1.52;;
21198;SDS011;10757;51.038;3.712;2022-09-17T06:26:52;8.88;;;1.80;;
21198;SDS011;10757;51.038;3.712;2022-09-17T06:29:19;8.77;;;1.48;;
21198;SDS011;10757;51.038;3.712;2022-09-17T06:31:48;9.73;;;1.40;;
21198;SDS011;10757;51.038;3.712;2022-09-17T06:34:18;10.57;;;2.00;;
21198;SDS011;10757;51.038;3.712;2022-09-17T06:36:44;13.82;;;1.73;;
21198;SDS011;10757;51.038;3.712;2022-09-17T06:39:10;13.93;;;2.13;;
21198;SDS011;10757;51.038;3.712;2022-09-17T06:41:37;13.90;;;1.90;;
21198;SDS011;10757;51.038;3.712;2022-09-17T06:44:08;15.18;;;1.73;;
21198;SDS011;10757;51.038;3.712;2022-09-17T06:46:37;10.73;;;1.95;;
21198;SDS011;10757;51.038;3.712;2022-09-17T06:49:03;8.52;;;1.30;;
21198;SDS011;10757;51.038;3.712;2022-09-17T06:51:31;14.70;;;2.10;;
21198;SDS011;10757;51.038;3.712;2022-09-17T06:53:58;11.40;;;1.35;;
21198;SDS011;10757;51.038;3.712;2022-09-17T06:56:27;9.80;;;1.60;;
21198;SDS011;10757;51.038;3.712;2022-09-17T06:58:54;8.68;;;1.85;;
21198;SDS011;10757;51.038;3.712;2022-09-17T07:01:21;13.55;;;1.92;;
21198;SDS011;10757;51.038;3.712;2022-09-17T07:03:47;10.35;;;1.55;;
21198;SDS011;10757;51.038;3.712;2022-09-17T07:06:23;9.45;;;2.58;;
21198;SDS011;10757;51.038;3.712;2022-09-17T07:11:47;11.75;;;1.85;;
21198;SDS011;10757;51.038;3.712;2022-09-17T07:14:13;12.98;;;1.98;;
21198;SDS011;10757;51.038;3.712;2022-09-17T07:16:53;14.30;;;1.83;;
21198;SDS011;10757;51.038;3.712;2022-09-17T07:19:24;9.80;;;1.48;;
21198;SDS011;10757;51.038;3.712;2022-09-17T07:21:57;9.02;;;1.73;;
21198;SDS011;10757;51.038;3.712;2022-09-17T07:24:29;8.20;;;1.13;;
21198;SDS011;10757;51.038;3.712;2022-09-17T07:27:00;8.73;;;1.33;;
21198;SDS011;10757;51.038;3.712;2022-09-17T07:29:26;9.13;;;1.45;;
21198;SDS011;10757;51.038;3.712;2022-09-17T07:34:49;10.18;;;1.40;;
21198;SDS011;10757;51.038;3.712;2022-09-17T07:37:15;10.98;;;1.45;;
21198;SDS011;10757;51.038;3.712;2022-09-17T07:39:42;6.75;;;1.27;;
21198;SDS011;10757;51.038;3.712;2022-09-17T07:42:08;8.07;;;1.85;;
21198;SDS011;10757;51.038;3.712;2022-09-17T07:44:34;8.68;;;1.35;;
21198;SDS011;10757;51.038;3.712;2022-09-17T07:47:00;8.02;;;1.67;;
21198;SDS011;10757;51.038;3.712;2022-09-17T07:49:26;11.07;;;1.40;;
21198;SDS011;10757;51.038;3.712;2022-09-17T07:51:51;7.78;;;1.77;;
21198;SDS011;10757;51.038;3.712;2022-09-17T07:54:18;9.55;;;1.92;;
21198;SDS011;10757;51.038;3.712;2022-09-17T07:56:44;15.85;;;1.83;;
21198;SDS011;10757;51.038;3.712;2022-09-17T07:59:10;7.72;;;1.33;;
21198;SDS011;10757;51.038;3.712;2022-09-17T08:01:36;9.15;;;1.33;;
21198;SDS011;10757;51.038;3.712;2022-09-17T08:04:02;6.63;;;1.45;;
21198;SDS011;10757;51.038;3.712;2022-09-17T08:06:28;9.02;;;1.40;;
21198;SDS011;10757;51.038;3.712;2022-09-17T08:08:54;12.05;;;2.20;;
21198;SDS011;10757;51.038;3.712;2022-09-17T08:11:22;8.65;;;1.45;;
21198;SDS011;10757;51.038;3.712;2022-09-17T08:13:52;5.28;;;1.13;;
21198;SDS011;10757;51.038;3.712;2022-09-17T08:16:19;6.32;;;1.67;;
21198;SDS011;10757;51.038;3.712;2022-09-17T08:18:46;9.95;;;2.17;;
21198;SDS011;10757;51.038;3.712;2022-09-17T08:21:13;11.13;;;1.30;;
21198;SDS011;10757;51.038;3.712;2022-09-17T08:23:41;8.63;;;1.63;;
21198;SDS011;10757;51.038;3.712;2022-09-17T08:26:15;15.50;;;2.45;;
21198;SDS011;10757;51.038;3.712;2022-09-17T08:28:46;9.60;;;1.83;;
21198;SDS011;10757;51.038;3.712;2022-09-17T08:31:20;7.45;;;1.15;;
21198;SDS011;10757;51.038;3.712;2022-09-17T08:33:50;6.47;;;1.38;;
21198;SDS011;10757;51.038;3.712;2022-09-17T08:36:16;6.13;;;1.63;;
21198;SDS011;10757;51.038;3.712;2022-09-17T08:38:43;9.18;;;1.40;;
21198;SDS011;10757;51.038;3.712;2022-09-17T08:43:47;11.43;;;1.25;;
21198;SDS011;10757;51.038;3.712;2022-09-17T08:46:18;11.15;;;3.28;;
21198;SDS011;10757;51.038;3.712;2022-09-17T08:48:44;5.97;;;1.17;;
21198;SDS011;10757;51.038;3.712;2022-09-17T08:51:26;9.05;;;1.10;;
21198;SDS011;10757;51.038;3.712;2022-09-17T08:56:25;6.57;;;1.50;;
21198;SDS011;10757;51.038;3.712;2022-09-17T08:59:02;9.02;;;1.20;;
21198;SDS011;10757;51.038;3.712;2022-09-17T09:07:14;11.40;;;1.33;;
21198;SDS011;10757;51.038;3.712;2022-09-17T09:09:46;8.65;;;1.10;;
21198;SDS011;10757;51.038;3.712;2022-09-17T09:12:27;9.20;;;1.40;;
21198;SDS011;10757;51.038;3.712;2022-09-17T09:14:58;8.68;;;1.65;;
21198;SDS011;10757;51.038;3.712;2022-09-17T09:17:43;8.55;;;1.15;;
21198;SDS011;10757;51.038;3.712;2022-09-17T09:20:14;8.32;;;1.40;;
21198;SDS011;10757;51.038;3.712;2022-09-17T09:30:23;7.75;;;1.50;;
21198;SDS011;10757;51.038;3.712;2022-09-17T09:35:39;11.82;;;1.98;;
21198;SDS011;10757;51.038;3.712;2022-09-17T09:41:08;10.48;;;3.65;;
21198;SDS011;10757;51.038;3.712;2022-09-17T09:43:50;7.50;;;2.20;;
21198;SDS011;10757;51.038;3.712;2022-09-17T09:51:48;9.30;;;1.98;;
21198;SDS011;10757;51.038;3.712;2022-09-17T09:57:20;10.90;;;1.95;;
21198;SDS011;10757;51.038;3.712;2022-09-17T10:02:58;12.55;;;3.28;;
21198;SDS011;10757;51.038;3.712;2022-09-17T10:05:30;10.98;;;1.80;;
21198;SDS011;10757;51.038;3.712;2022-09-17T10:07:56;14.65;;;3.92;;
21198;SDS011;10757;51.038;3.712;2022-09-17T10:10:21;13.40;;;2.15;;
21198;SDS011;10757;51.038;3.712;2022-09-17T10:12:47;11.20;;;1.83;;
21198;SDS011;10757;51.038;3.712;2022-09-17T10:15:26;14.98;;;2.22;;
21198;SDS011;10757;51.038;3.712;2022-09-17T10:18:14;14.25;;;1.67;;
21198;SDS011;10757;51.038;3.712;2022-09-17T10:20:48;15.05;;;3.17;;
21198;SDS011;10757;51.038;3.712;2022-09-17T10:23:21;19.77;;;2.22;;
21198;SDS011;10757;51.038;3.712;2022-09-17T10:25:49;15.05;;;2.28;;
21198;SDS011;10757;51.038;3.712;2022-09-17T10:28:33;7.35;;;1.60;;
21198;SDS011;10757;51.038;3.712;2022-09-17T10:31:12;13.75;;;6.72;;
21198;SDS011;10757;51.038;3.712;2022-09-17T10:33:39;13.05;;;5.00;;
21198;SDS011;10757;51.038;3.712;2022-09-17T10:36:15;10.40;;;2.20;;
21198;SDS011;10757;51.038;3.712;2022-09-17T10:38:42;17.67;;;2.72;;
21198;SDS011;10757;51.038;3.712;2022-09-17T10:41:14;13.65;;;2.95;;
21198;SDS011;10757;51.038;3.712;2022-09-17T10:43:41;16.40;;;2.20;;
21198;SDS011;10757;51.038;3.712;2022-09-17T10:46:14;10.65;;;1.75;;
21198;SDS011;10757;51.038;3.712;2022-09-17T10:48:44;6.95;;;1.33;;
21198;SDS011;10757;51.038;3.712;2022-09-17T10:51:18;13.52;;;1.55;;
21198;SDS011;10757;51.038;3.712;2022-09-17T10:53:55;7.80;;;1.95;;
21198;SDS011;10757;51.038;3.712;2022-09-17T10:56:45;8.60;;;1.10;;
21198;SDS011;10757;51.038;3.712;2022-09-17T11:04:49;10.23;;;2.22;;
21198;SDS011;10757;51.038;3.712;2022-09-17T11:13:14;9.40;;;1.60;;
21198;SDS011;10757;51.038;3.712;2022-09-17T11:30:16;12.27;;;2.08;;
21198;SDS011;10757;51.038;3.712;2022-09-17T11:35:50;17.42;;;2.92;;
21198;SDS011;10757;51.038;3.712;2022-09-17T11:43:43;15.20;;;2.55;;
21198;SDS011;10757;51.038;3.712;2022-09-17T11:46:31;10.63;;;2.35;;
21198;SDS011;10757;51.038;3.712;2022-09-17T11:49:21;13.40;;;2.08;;
21198;SDS011;10757;51.038;3.712;2022-09-17T11:51:52;20.05;;;2.65;;
21198;SDS011;10757;51.038;3.712;2022-09-17T11:54:38;16.88;;;2.30;;
21198;SDS011;10757;51.038;3.712;2022-09-17T11:57:15;9.40;;;1.85;;
21198;SDS011;10757;51.038;3.712;2022-09-17T12:05:03;12.85;;;2.33;;
21198;SDS011;10757;51.038;3.712;2022-09-17T12:07:39;10.15;;;1.55;;
21198;SDS011;10757;51.038;3.712;2022-09-17T12:13:01;7.95;;;1.98;;
21198;SDS011;10757;51.038;3.712;2022-09-17T12:15:31;9.43;;;1.88;;
21198;SDS011;10757;51.038;3.712;2022-09-17T12:21:00;9.45;;;2.00;;
21198;SDS011;10757;51.038;3.712;2022-09-17T12:23:36;16.40;;;3.67;;
21198;SDS011;10757;51.038;3.712;2022-09-17T12:26:13;16.10;;;2.70;;
21198;SDS011;10757;51.038;3.712;2022-09-17T12:28:42;11.82;;;2.08;;
21198;SDS011;10757;51.038;3.712;2022-09-17T12:31:42;12.07;;;2.50;;
21198;SDS011;10757;51.038;3.712;2022-09-17T13:00:12;14.13;;;1.80;;
21198;SDS011;10757;51.038;3.712;2022-09-17T13:02:51;9.20;;;1.63;;
21198;SDS011;10757;51.038;3.712;2022-09-17T13:11:48;12.73;;;2.10;;
21198;SDS011;10757;51.038;3.712;2022-09-17T13:13:54;8.98;;;1.65;;
21198;SDS011;10757;51.038;3.712;2022-09-17T13:22:03;12.57;;;2.03;;
21198;SDS011;10757;51.038;3.712;2022-09-17T13:24:31;11.90;;;2.40;;
21198;SDS011;10757;51.038;3.712;2022-09-17T13:26:58;11.93;;;2.25;;
21198;SDS011;10757;51.038;3.712;2022-09-17T13:37:31;10.38;;;1.48;;
21198;SDS011;10757;51.038;3.712;2022-09-17T13:40:00;11.77;;;2.05;;
21198;SDS011;10757;51.038;3.712;2022-09-17T13:42:29;7.28;;;1.40;;
21198;SDS011;10757;51.038;3.712;2022-09-17T13:45:11;11.43;;;2.95;;
21198;SDS011;10757;51.038;3.712;2022-09-17T13:47:54;8.60;;;1.60;;
21198;SDS011;10757;51.038;3.712;2022-09-17T13:50:25;12.13;;;3.58;;
21198;SDS011;10757;51.038;3.712;2022-09-17T13:55:41;11.15;;;2.42;;
21198;SDS011;10757;51.038;3.712;2022-09-17T13:58:41;9.75;;;2.17;;
21198;SDS011;10757;51.038;3.712;2022-09-17T14:01:10;5.07;;;1.48;;
21198;SDS011;10757;51.038;3.712;2022-09-17T14:24:43;2.78;;;0.93;;
21198;SDS011;10757;51.038;3.712;2022-09-17T14:30:25;9.93;;;1.60;;
21198;SDS011;10757;51.038;3.712;2022-09-17T14:38:06;3.85;;;1.30;;
21198;SDS011;10757;51.038;3.712;2022-09-17T14:49:12;8.50;;;1.20;;
21198;SDS011;10757;51.038;3.712;2022-09-17T14:51:47;8.90;;;1.70;;
21198;SDS011;10757;51.038;3.712;2022-09-17T14:54:18;8.20;;;1.20;;
21198;SDS011;10757;51.038;3.712;2022-09-17T15:10:19;4.03;;;1.25;;
21198;SDS011;10757;51.038;3.712;2022-09-17T15:12:48;8.93;;;1.48;;
21198;SDS011;10757;51.038;3.712;2022-09-17T15:15:22;6.40;;;1.08;;
21198;SDS011;10757;51.038;3.712;2022-09-17T15:17:50;10.52;;;1.90;;
21198;SDS011;10757;51.038;3.712;2022-09-17T15:20:19;4.90;;;1.58;;
21198;SDS011;10757;51.038;3.712;2022-09-17T15:22:57;9.02;;;1.30;;
21198;SDS011;10757;51.038;3.712;2022-09-17T15:25:54;7.80;;;1.30;;
21198;SDS011;10757;51.038;3.712;2022-09-17T15:30:51;11.48;;;2.10;;
21198;SDS011;10757;51.038;3.712;2022-09-17T15:33:17;5.55;;;1.60;;
21198;SDS011;10757;51.038;3.712;2022-09-17T15:38:46;9.93;;;1.48;;
21198;SDS011;10757;51.038;3.712;2022-09-17T15:43:49;13.85;;;2.13;;
21198;SDS011;10757;51.038;3.712;2022-09-17T15:48:54;14.60;;;2.10;;
21198;SDS011;10757;51.038;3.712;2022-09-17T15:51:26;12.38;;;2.33;;
21198;SDS011;10757;51.038;3.712;2022-09-17T15:54:24;9.73;;;1.83;;
21198;SDS011;10757;51.038;3.712;2022-09-17T15:56:54;11.75;;;2.05;;
21198;SDS011;10757;51.038;3.712;2022-09-17T15:59:27;10.70;;;2.33;;
21198;SDS011;10757;51.038;3.712;2022-09-17T16:02:00;11.00;;;2.55;;
21198;SDS011;10757;51.038;3.712;2022-09-17T16:04:33;11.23;;;3.03;;
21198;SDS011;10757;51.038;3.712;2022-09-17T16:07:00;9.02;;;2.40;;
21198;SDS011;10757;51.038;3.712;2022-09-17T16:09:40;10.75;;;2.33;;
21198;SDS011;10757;51.038;3.712;2022-09-17T16:12:11;13.10;;;2.70;;
21198;SDS011;10757;51.038;3.712;2022-09-17T16:14:44;19.30;;;2.72;;
21198;SDS011;10757;51.038;3.712;2022-09-17T16:17:29;9.93;;;2.22;;
21198;SDS011;10757;51.038;3.712;2022-09-17T16:20:17;12.98;;;2.60;;
21198;SDS011;10757;51.038;3.712;2022-09-17T16:22:47;14.73;;;3.42;;
21198;SDS011;10757;51.038;3.712;2022-09-17T16:25:14;13.77;;;2.55;;
21198;SDS011;10757;51.038;3.712;2022-09-17T16:27:49;12.48;;;3.28;;
21198;SDS011;10757;51.038;3.712;2022-09-17T16:30:36;14.43;;;3.13;;
21198;SDS011;10757;51.038;3.712;2022-09-17T16:33:05;16.30;;;3.42;;
21198;SDS011;10757;51.038;3.712;2022-09-17T16:35:33;19.30;;;4.32;;
21198;SDS011;10757;51.038;3.712;2022-09-17T16:37:59;12.60;;;2.63;;
21198;SDS011;10757;51.038;3.712;2022-09-17T16:40:25;12.77;;;2.83;;
21198;SDS011;10757;51.038;3.712;2022-09-17T16:42:55;15.90;;;2.70;;
21198;SDS011;10757;51.038;3.712;2022-09-17T16:47:57;15.35;;;3.13;;
21198;SDS011;10757;51.038;3.712;2022-09-17T16:50:23;11.68;;;3.63;;
21198;SDS011;10757;51.038;3.712;2022-09-17T16:52:50;12.00;;;3.67;;
21198;SDS011;10757;51.038;3.712;2022-09-17T16:55:16;12.20;;;3.00;;
21198;SDS011;10757;51.038;3.712;2022-09-17T16:57:43;15.25;;;3.03;;
21198;SDS011;10757;51.038;3.712;2022-09-17T17:00:10;10.93;;;2.13;;
21198;SDS011;10757;51.038;3.712;2022-09-17T17:02:50;6.38;;;2.08;;
21198;SDS011;10757;51.038;3.712;2022-09-17T17:05:20;7.53;;;1.83;;
21198;SDS011;10757;51.038;3.712;2022-09-17T17:07:48;8.80;;;1.90;;
21198;SDS011;10757;51.038;3.712;2022-09-17T17:10:14;12.57;;;1.90;;
21198;SDS011;10757;51.038;3.712;2022-09-17T17:12:44;7.25;;;2.28;;
21198;SDS011;10757;51.038;3.712;2022-09-17T17:15:10;8.13;;;2.75;;
21198;SDS011;10757;51.038;3.712;2022-09-17T17:17:38;9.93;;;2.25;;
21198;SDS011;10757;51.038;3.712;2022-09-17T17:20:05;14.35;;;2.67;;
21198;SDS011;10757;51.038;3.712;2022-09-17T17:22:37;12.57;;;2.90;;
21198;SDS011;10757;51.038;3.712;2022-09-17T17:25:11;12.48;;;2.83;;
21198;SDS011;10757;51.038;3.712;2022-09-17T17:27:38;9.57;;;2.55;;
21198;SDS011;10757;51.038;3.712;2022-09-17T17:33:10;9.00;;;3.05;;
21198;SDS011;10757;51.038;3.712;2022-09-17T17:35:39;9.73;;;2.90;;
21198;SDS011;10757;51.038;3.712;2022-09-17T17:38:06;8.18;;;2.55;;
21198;SDS011;10757;51.038;3.712;2022-09-17T17:40:32;9.05;;;2.47;;
21198;SDS011;10757;51.038;3.712;2022-09-17T17:43:12;11.77;;;2.70;;
21198;SDS011;10757;51.038;3.712;2022-09-17T17:45:39;10.77;;;3.25;;
21198;SDS011;10757;51.038;3.712;2022-09-17T17:48:07;14.52;;;3.22;;
21198;SDS011;10757;51.038;3.712;2022-09-17T17:50:33;8.55;;;2.67;;
21198;SDS011;10757;51.038;3.712;2022-09-17T17:52:59;14.82;;;2.60;;
21198;SDS011;10757;51.038;3.712;2022-09-17T17:55:28;13.55;;;2.85;;
21198;SDS011;10757;51.038;3.712;2022-09-17T17:57:55;10.95;;;3.45;;
21198;SDS011;10757;51.038;3.712;2022-09-17T18:03:09;7.63;;;2.30;;
21198;SDS011;10757;51.038;3.712;2022-09-17T18:05:41;9.07;;;2.30;;
21198;SDS011;10757;51.038;3.712;2022-09-17T18:08:10;12.05;;;2.70;;
21198;SDS011;10757;51.038;3.712;2022-09-17T18:10:36;9.65;;;2.08;;
21198;SDS011;10757;51.038;3.712;2022-09-17T18:13:02;10.07;;;3.00;;
21198;SDS011;10757;51.038;3.712;2022-09-17T18:18:21;12.15;;;3.30;;
21198;SDS011;10757;51.038;3.712;2022-09-17T18:20:58;10.45;;;4.50;;
21198;SDS011;10757;51.038;3.712;2022-09-17T18:23:33;13.30;;;5.28;;
21198;SDS011;10757;51.038;3.712;2022-09-17T18:26:14;17.75;;;6.03;;
21198;SDS011;10757;51.038;3.712;2022-09-17T18:28:43;8.85;;;2.92;;
21198;SDS011;10757;51.038;3.712;2022-09-17T18:33:56;16.90;;;4.53;;
21198;SDS011;10757;51.038;3.712;2022-09-17T18:36:30;10.38;;;2.88;;
21198;SDS011;10757;51.038;3.712;2022-09-17T18:39:02;12.15;;;3.42;;
21198;SDS011;10757;51.038;3.712;2022-09-17T18:41:45;12.40;;;2.38;;
21198;SDS011;10757;51.038;3.712;2022-09-17T18:44:19;11.68;;;2.65;;
21198;SDS011;10757;51.038;3.712;2022-09-17T18:46:51;14.55;;;3.67;;
21198;SDS011;10757;51.038;3.712;2022-09-17T18:49:25;10.93;;;3.13;;
21198;SDS011;10757;51.038;3.712;2022-09-17T18:52:03;12.27;;;3.67;;
21198;SDS011;10757;51.038;3.712;2022-09-17T18:54:35;10.30;;;3.60;;
21198;SDS011;10757;51.038;3.712;2022-09-17T18:57:03;20.23;;;7.10;;
21198;SDS011;10757;51.038;3.712;2022-09-17T18:59:35;13.50;;;5.32;;
21198;SDS011;10757;51.038;3.712;2022-09-17T19:02:07;16.55;;;5.40;;
21198;SDS011;10757;51.038;3.712;2022-09-17T19:04:36;11.07;;;4.82;;
21198;SDS011;10757;51.038;3.712;2022-09-17T19:10:05;16.95;;;5.88;;
21198;SDS011;10757;51.038;3.712;2022-09-17T19:12:34;14.35;;;4.35;;
21198;SDS011;10757;51.038;3.712;2022-09-17T19:15:03;13.52;;;4.72;;
21198;SDS011;10757;51.038;3.712;2022-09-17T19:17:35;8.48;;;3.63;;
21198;SDS011;10757;51.038;3.712;2022-09-17T19:23:03;9.52;;;3.10;;
21198;SDS011;10757;51.038;3.712;2022-09-17T19:25:35;18.63;;;3.65;;
21198;SDS011;10757;51.038;3.712;2022-09-17T19:28:05;15.77;;;3.20;;
21198;SDS011;10757;51.038;3.712;2022-09-17T19:30:34;10.38;;;2.72;;